createdAt,value
2018-05-15T00:00:35.110Z,17.10
2018-05-15T00:03:01.413Z,15.83
2018-05-15T00:05:27.716Z,16.23
2018-05-15T00:07:54.729Z,17.30
2018-05-15T00:10:21.076Z,16.87
2018-05-15T00:12:48.113Z,17.50
2018-05-15T00:15:14.421Z,19.00
2018-05-15T00:17:40.692Z,17.60
2018-05-15T00:20:07.741Z,19.45
2018-05-15T00:22:34.778Z,19.30
2018-05-15T00:25:01.805Z,20.50
2018-05-15T00:27:28.118Z,22.73
2018-05-15T00:29:54.414Z,22.63
2018-05-15T00:32:20.757Z,21.25
2018-05-15T00:34:47.062Z,24.27
2018-05-15T00:37:14.079Z,24.00
2018-05-15T00:39:42.838Z,23.80
2018-05-15T00:42:09.137Z,24.55
2018-05-15T00:44:35.638Z,24.65
2018-05-15T00:47:01.898Z,27.07
2018-05-15T00:49:28.200Z,26.63
2018-05-15T00:51:55.213Z,27.15
2018-05-15T00:54:21.513Z,27.27
2018-05-15T00:56:47.798Z,27.60
2018-05-15T00:59:14.856Z,26.30
2018-05-15T01:01:41.885Z,27.80
2018-05-15T01:04:08.191Z,25.57
2018-05-15T01:06:34.461Z,28.00
2018-05-15T01:09:01.504Z,28.33
2018-05-15T01:11:28.529Z,27.60
2018-05-15T01:13:54.841Z,29.40
2018-05-15T01:16:21.109Z,27.37
2018-05-15T01:18:48.149Z,25.27
2018-05-15T01:21:14.440Z,28.70
2018-05-15T01:23:40.785Z,25.00
2018-05-15T01:26:07.046Z,26.25
2018-05-15T01:28:34.116Z,24.23
2018-05-15T01:31:00.413Z,26.08
2018-05-15T01:33:26.728Z,26.53
2018-05-15T01:35:53.021Z,26.80
2018-05-15T01:38:19.325Z,26.37
2018-05-15T01:40:46.365Z,25.33
2018-05-15T01:43:13.408Z,28.30
2018-05-15T01:45:39.691Z,26.27
2018-05-15T01:48:05.999Z,27.00
2018-05-15T01:50:32.292Z,27.95
2018-05-15T01:52:58.604Z,27.90
2018-05-15T01:55:24.901Z,27.00
2018-05-15T01:57:51.201Z,29.52
2018-05-15T02:00:18.225Z,29.83
2018-05-15T02:02:44.531Z,26.00
2018-05-15T02:05:10.813Z,26.90
2018-05-15T02:07:37.869Z,24.50
2018-05-15T02:10:04.901Z,25.10
2018-05-15T02:12:31.943Z,23.50
2018-05-15T02:14:58.219Z,24.17
2018-05-15T02:17:24.522Z,23.50
2018-05-15T02:19:51.566Z,24.13
2018-05-15T02:22:18.621Z,22.77
2018-05-15T02:24:44.909Z,24.03
2018-05-15T02:27:11.213Z,21.73
2018-05-15T02:29:38.517Z,22.90
2018-05-15T02:32:05.573Z,23.30
2018-05-15T02:34:31.873Z,23.80
2018-05-15T02:36:58.169Z,22.37
2018-05-15T02:39:24.452Z,25.07
2018-05-15T02:41:51.493Z,22.93
2018-05-15T02:44:17.757Z,23.60
2018-05-15T02:46:44.065Z,25.30
2018-05-15T02:49:11.101Z,27.13
2018-05-15T02:51:37.401Z,25.60
2018-05-15T02:54:03.729Z,26.43
2018-05-15T02:56:30.030Z,25.33
2018-05-15T02:58:56.325Z,27.40
2018-05-15T03:01:23.400Z,25.00
2018-05-15T03:03:49.690Z,26.90
2018-05-15T03:06:16.029Z,26.62
2018-05-15T03:08:43.045Z,28.65
2018-05-15T03:11:10.389Z,29.45
2018-05-15T03:13:36.690Z,29.23
2018-05-15T03:16:03.031Z,28.00
2018-05-15T03:18:29.328Z,28.20
2018-05-15T03:20:56.390Z,31.95
2018-05-15T03:23:22.720Z,29.80
2018-05-15T03:25:49.025Z,29.53
2018-05-15T03:28:15.302Z,30.37
2018-05-15T03:30:41.601Z,28.67
2018-05-15T03:33:08.621Z,30.30
2018-05-15T03:35:34.947Z,32.08
2018-05-15T03:38:03.058Z,30.98
2018-05-15T03:40:29.361Z,32.17
2018-05-15T03:42:55.653Z,29.17
2018-05-15T03:45:21.953Z,29.60
2018-05-15T03:47:48.237Z,31.50
2018-05-15T03:50:14.553Z,33.33
2018-05-15T03:52:40.845Z,31.30
2018-05-15T03:55:07.140Z,32.28
2018-05-15T03:57:34.184Z,32.53
2018-05-15T04:00:00.496Z,32.97
2018-05-15T04:02:39.969Z,35.78
2018-05-15T04:05:19.396Z,34.22
2018-05-15T04:10:45.424Z,33.83
2018-05-15T04:13:11.723Z,36.45
2018-05-15T04:15:38.026Z,32.45
2018-05-15T04:18:04.328Z,36.60
2018-05-15T04:20:30.649Z,33.20
2018-05-15T04:22:57.709Z,34.28
2018-05-15T04:25:24.003Z,30.30
2018-05-15T04:27:50.294Z,29.90
2018-05-15T04:30:16.590Z,31.70
2018-05-15T04:32:43.648Z,30.88
2018-05-15T04:35:10.033Z,29.63
2018-05-15T04:37:36.228Z,29.25
2018-05-15T04:40:02.558Z,29.90
2018-05-15T04:42:29.595Z,29.20
2018-05-15T04:44:56.618Z,27.13
2018-05-15T04:47:22.926Z,27.23
2018-05-15T04:49:49.257Z,24.80
2018-05-15T04:52:15.545Z,25.17
2018-05-15T04:54:41.840Z,26.27
2018-05-15T04:57:08.135Z,24.53
2018-05-15T04:59:34.444Z,23.77
2018-05-15T05:02:00.828Z,23.17
2018-05-15T05:04:27.076Z,22.43
2018-05-15T05:06:53.375Z,24.00
2018-05-15T05:09:19.684Z,21.37
2018-05-15T05:11:46.001Z,24.57
2018-05-15T05:14:12.289Z,22.83
2018-05-15T05:16:38.570Z,21.00
2018-05-15T05:19:04.872Z,21.77
2018-05-15T05:21:31.884Z,20.03
2018-05-15T05:23:58.185Z,18.77
2018-05-15T05:26:24.464Z,21.27
2018-05-15T05:28:51.549Z,18.90
2018-05-15T05:31:17.838Z,17.17
2018-05-15T05:33:44.145Z,18.10
2018-05-15T05:36:10.434Z,17.17
2018-05-15T05:38:36.725Z,15.27
2018-05-15T05:41:03.033Z,14.97
2018-05-15T05:43:30.362Z,15.60
2018-05-15T05:45:56.641Z,15.30
2018-05-15T05:48:23.326Z,14.47
2018-05-15T05:50:50.513Z,14.00
2018-05-15T05:53:16.861Z,15.40
2018-05-15T05:55:43.133Z,14.40
2018-05-15T05:58:09.448Z,13.03
2018-05-15T06:00:35.741Z,13.90
2018-05-15T06:03:02.049Z,13.53
2018-05-15T06:05:28.333Z,12.23
2018-05-15T06:07:54.625Z,11.60
2018-05-15T06:10:20.909Z,13.00
2018-05-15T06:12:47.227Z,13.40
2018-05-15T06:15:14.258Z,12.90
2018-05-15T06:17:41.297Z,12.00
2018-05-15T06:20:07.564Z,11.50
2018-05-15T06:22:33.857Z,10.93
2018-05-15T06:25:00.148Z,11.43
2018-05-15T06:27:26.540Z,11.10
2018-05-15T06:29:52.764Z,10.87
2018-05-15T06:32:19.791Z,10.87
2018-05-15T06:34:46.857Z,11.13
2018-05-15T06:37:13.872Z,11.20
2018-05-15T06:39:40.179Z,11.30
2018-05-15T06:42:06.484Z,10.83
2018-05-15T06:44:32.760Z,12.20
2018-05-15T06:47:01.645Z,9.93
2018-05-15T06:49:27.925Z,11.30
2018-05-15T06:51:54.266Z,10.90
2018-05-15T06:54:20.556Z,10.83
2018-05-15T06:56:46.861Z,9.30
2018-05-15T06:59:13.145Z,9.17
2018-05-15T07:01:39.479Z,8.47
2018-05-15T07:04:05.771Z,7.70
2018-05-15T07:06:32.064Z,8.63
2018-05-15T07:08:58.365Z,7.83
2018-05-15T07:11:24.669Z,8.73
2018-05-15T07:13:50.968Z,7.67
2018-05-15T07:16:17.261Z,8.83
2018-05-15T07:18:43.581Z,7.07
2018-05-15T07:21:09.857Z,8.47
2018-05-15T07:23:36.177Z,7.47
2018-05-15T07:26:02.517Z,7.30
2018-05-15T07:28:28.860Z,7.30
2018-05-15T07:30:55.141Z,7.90
2018-05-15T07:33:21.453Z,8.10
2018-05-15T07:35:48.485Z,7.67
2018-05-15T07:38:14.781Z,6.77
2018-05-15T07:40:41.065Z,7.80
2018-05-15T07:43:08.113Z,7.70
2018-05-15T07:45:35.125Z,7.40
2018-05-15T07:48:01.432Z,7.20
2018-05-15T07:50:27.701Z,7.63
2018-05-15T07:52:54.741Z,7.73
2018-05-15T07:55:21.017Z,8.30
2018-05-15T07:57:47.310Z,8.80
2018-05-15T08:00:14.420Z,7.80
2018-05-15T08:02:41.385Z,7.63
2018-05-15T08:05:08.689Z,8.20
2018-05-15T08:07:34.984Z,6.83
2018-05-15T08:10:01.266Z,8.13
2018-05-15T08:12:27.589Z,8.50
2018-05-15T08:14:54.412Z,7.20
2018-05-15T08:17:20.770Z,8.57
2018-05-15T08:19:47.054Z,7.23
2018-05-15T08:22:14.742Z,7.63
2018-05-15T08:24:41.982Z,8.67
2018-05-15T08:27:08.303Z,7.47
2018-05-15T08:29:35.318Z,7.57
2018-05-15T08:32:01.646Z,8.37
2018-05-15T08:34:27.926Z,7.30
2018-05-15T08:36:54.254Z,7.20
2018-05-15T08:39:20.536Z,7.67
2018-05-15T08:41:46.846Z,8.13
2018-05-15T08:44:13.133Z,7.90
2018-05-15T08:46:40.176Z,7.70
2018-05-15T08:49:07.197Z,7.90
2018-05-15T08:51:33.488Z,7.70
2018-05-15T08:56:33.536Z,7.23
2018-05-15T08:59:00.537Z,9.20
2018-05-15T09:01:27.981Z,7.30
2018-05-15T09:03:54.321Z,7.60
2018-05-15T09:06:21.365Z,7.07
2018-05-15T09:08:47.634Z,7.43
2018-05-15T09:11:13.949Z,7.97
2018-05-15T09:13:40.974Z,8.00
2018-05-15T09:16:08.293Z,8.50
2018-05-15T09:18:34.570Z,8.30
2018-05-15T09:21:00.864Z,7.27
2018-05-15T09:23:27.150Z,7.67
2018-05-15T09:25:53.457Z,7.13
2018-05-15T09:28:19.721Z,6.73
2018-05-15T09:30:46.760Z,7.80
2018-05-15T09:33:13.041Z,7.37
2018-05-15T09:35:40.078Z,7.40
2018-05-15T09:38:07.401Z,8.00
2018-05-15T09:40:33.689Z,7.77
2018-05-15T09:43:00.693Z,8.20
2018-05-15T09:45:26.985Z,7.83
2018-05-15T09:47:53.273Z,8.50
2018-05-15T09:50:20.346Z,7.50
2018-05-15T09:52:47.377Z,8.53
2018-05-15T09:55:15.359Z,7.47
2018-05-15T09:57:41.817Z,7.83
2018-05-15T10:00:08.130Z,8.20
2018-05-15T10:02:34.417Z,7.73
2018-05-15T10:05:00.723Z,7.83
2018-05-15T10:07:27.005Z,6.90
2018-05-15T10:09:55.233Z,7.27
2018-05-15T10:12:21.505Z,7.20
2018-05-15T10:14:47.808Z,7.70
2018-05-15T10:17:14.085Z,7.73
2018-05-15T10:19:41.130Z,8.83
2018-05-15T10:22:08.150Z,9.40
2018-05-15T10:24:34.446Z,8.50
2018-05-15T10:27:00.716Z,8.10
2018-05-15T10:29:27.009Z,8.87
2018-05-15T10:31:53.313Z,8.47
2018-05-15T10:34:19.609Z,7.70
2018-05-15T10:36:47.993Z,8.10
2018-05-15T10:39:14.301Z,7.87
2018-05-15T10:41:40.597Z,8.10
2018-05-15T10:44:06.878Z,10.77
2018-05-15T10:46:34.728Z,11.03
2018-05-15T10:49:01.029Z,10.40
2018-05-15T10:51:27.344Z,10.40
2018-05-15T10:53:58.893Z,12.40
2018-05-15T10:56:25.941Z,12.20
2018-05-15T10:58:52.248Z,11.40
2018-05-15T11:01:18.538Z,12.40
2018-05-15T11:03:44.817Z,11.80
2018-05-15T11:06:11.155Z,10.87
2018-05-15T11:08:37.442Z,9.60
2018-05-15T11:11:03.734Z,9.30
2018-05-15T11:13:30.241Z,9.83
2018-05-15T11:15:56.536Z,10.17
2018-05-15T11:18:42.740Z,10.55
2018-05-15T11:21:21.373Z,9.83
2018-05-15T11:23:53.750Z,9.93
2018-05-15T11:26:20.042Z,9.00
2018-05-15T11:28:46.341Z,9.40
2018-05-15T11:31:13.403Z,8.90
2018-05-15T11:33:39.705Z,8.97
2018-05-15T11:36:05.991Z,8.63
2018-05-15T11:38:32.299Z,8.00
2018-05-15T11:40:58.573Z,6.47
2018-05-15T11:43:29.163Z,6.80
2018-05-15T11:45:55.676Z,7.00
2018-05-15T11:48:24.009Z,6.90
2018-05-15T11:50:50.176Z,7.53
2018-05-15T11:55:51.609Z,7.70
2018-05-15T11:58:17.937Z,6.93
2018-05-15T12:00:44.249Z,7.20
2018-05-15T12:03:16.429Z,6.33
2018-05-15T12:08:30.197Z,5.60
2018-05-15T12:10:56.773Z,6.37
2018-05-15T12:13:23.335Z,5.67
2018-05-15T12:15:56.399Z,6.50
2018-05-15T12:18:23.904Z,6.10
2018-05-15T12:20:52.277Z,7.00
2018-05-15T12:23:21.483Z,5.97
2018-05-15T12:28:27.133Z,6.20
2018-05-15T12:30:54.161Z,6.80
2018-05-15T12:33:22.108Z,7.30
2018-05-15T12:35:56.108Z,7.53
2018-05-15T12:38:23.755Z,7.97
2018-05-15T12:40:50.097Z,8.57
2018-05-15T12:43:17.462Z,8.23
2018-05-15T12:45:43.790Z,7.97
2018-05-15T12:48:11.214Z,8.60
2018-05-15T12:50:39.478Z,9.50
2018-05-15T12:53:06.728Z,9.20
2018-05-15T12:55:36.051Z,8.93
2018-05-15T12:58:02.379Z,9.80
2018-05-15T13:00:28.677Z,8.87
2018-05-15T13:02:54.960Z,10.83
2018-05-15T13:05:21.246Z,9.37
2018-05-15T13:07:47.545Z,10.40
2018-05-15T13:10:14.578Z,9.60
2018-05-15T13:12:40.885Z,10.63
2018-05-15T13:15:07.220Z,11.90
2018-05-15T13:17:33.509Z,10.33
2018-05-15T13:20:00.813Z,10.53
2018-05-15T13:22:27.096Z,11.07
2018-05-15T13:24:53.377Z,11.50
2018-05-15T13:27:19.686Z,10.97
2018-05-15T13:29:46.050Z,10.43
2018-05-15T13:32:12.289Z,8.50
2018-05-15T13:34:39.329Z,7.80
2018-05-15T13:37:05.629Z,6.90
2018-05-15T13:39:31.943Z,7.80
2018-05-15T13:41:58.324Z,8.63
2018-05-15T13:44:24.629Z,7.60
2018-05-15T13:46:50.973Z,9.00
2018-05-15T13:49:17.263Z,8.63
2018-05-15T13:51:43.536Z,8.20
2018-05-15T13:54:09.837Z,8.95
2018-05-15T13:56:36.132Z,8.70
2018-05-15T13:59:02.430Z,7.00
2018-05-15T14:01:28.733Z,8.97
2018-05-15T14:03:55.013Z,7.82
2018-05-15T14:06:21.297Z,7.85
2018-05-15T14:08:47.613Z,6.55
2018-05-15T14:11:13.923Z,6.95
2018-05-15T14:13:40.213Z,5.32
2018-05-15T14:16:06.523Z,6.07
2018-05-15T14:18:32.796Z,6.03
2018-05-15T14:20:59.077Z,10.40
2018-05-15T14:23:25.378Z,11.10
2018-05-15T14:25:51.653Z,8.90
2018-05-15T14:28:17.933Z,5.93
2018-05-15T14:30:45.236Z,4.83
2018-05-15T14:33:11.515Z,4.83
2018-05-15T14:35:37.784Z,4.60
2018-05-15T14:38:04.090Z,4.83
2018-05-15T14:40:30.381Z,4.10
2018-05-15T14:43:09.842Z,5.10
2018-05-15T14:45:37.840Z,4.27
2018-05-15T14:48:04.121Z,3.97
2018-05-15T14:50:30.460Z,3.10
2018-05-15T14:52:56.734Z,3.80
2018-05-15T14:55:24.052Z,5.80
2018-05-15T14:57:50.371Z,5.07
2018-05-15T15:00:16.682Z,3.80
2018-05-15T15:02:43.705Z,3.10
2018-05-15T15:05:11.496Z,3.27
2018-05-15T15:07:38.517Z,2.67
2018-05-15T15:10:04.822Z,2.17
2018-05-15T15:12:31.125Z,2.80
2018-05-15T15:14:57.413Z,2.73
2018-05-15T15:17:23.773Z,2.10
2018-05-15T15:19:50.050Z,2.73
2018-05-15T15:22:16.330Z,2.63
2018-05-15T15:24:43.373Z,1.93
2018-05-15T15:27:10.380Z,1.83
2018-05-15T15:29:36.669Z,2.03
2018-05-15T15:32:02.953Z,2.30
2018-05-15T15:34:30.738Z,2.33
2018-05-15T15:36:57.761Z,2.77
2018-05-15T15:39:24.050Z,2.30
2018-05-15T15:41:50.344Z,2.40
2018-05-15T15:44:17.408Z,2.80
2018-05-15T15:46:44.428Z,2.80
2018-05-15T15:49:10.725Z,2.47
2018-05-15T15:51:37.020Z,2.60
2018-05-15T15:54:03.318Z,2.00
2018-05-15T15:56:29.587Z,2.20
2018-05-15T15:58:55.880Z,1.73
2018-05-15T16:01:22.164Z,0.97
2018-05-15T16:03:48.457Z,1.20
2018-05-15T16:06:15.483Z,1.30
2018-05-15T16:08:41.772Z,1.50
2018-05-15T16:11:08.045Z,1.83
2018-05-15T16:13:34.348Z,1.37
2018-05-15T16:16:00.633Z,1.87
2018-05-15T16:18:26.941Z,2.30
2018-05-15T16:20:53.948Z,3.77
2018-05-15T16:23:20.236Z,2.53
2018-05-15T16:25:47.254Z,2.17
2018-05-15T16:28:13.550Z,1.50
2018-05-15T16:30:39.842Z,1.90
2018-05-15T16:33:06.873Z,1.93
2018-05-15T16:35:33.905Z,2.20
2018-05-15T16:38:00.204Z,2.70
2018-05-15T16:40:26.477Z,2.30
2018-05-15T16:42:53.542Z,2.30
2018-05-15T16:45:20.550Z,2.80
2018-05-15T16:47:46.837Z,2.67
2018-05-15T16:50:13.109Z,3.07
2018-05-15T16:52:39.410Z,3.50
2018-05-15T16:55:05.677Z,4.17
2018-05-15T16:57:31.973Z,3.53
2018-05-15T16:59:58.268Z,3.90
2018-05-15T17:02:25.284Z,3.30
2018-05-15T17:04:51.577Z,3.80
2018-05-15T17:07:17.861Z,3.60
2018-05-15T17:09:44.881Z,4.03
2018-05-15T17:12:11.162Z,4.47
2018-05-15T17:14:37.459Z,4.73
2018-05-15T17:17:03.724Z,4.20
2018-05-15T17:19:30.014Z,4.80
2018-05-15T17:21:56.305Z,4.37
2018-05-15T17:24:22.588Z,5.40
2018-05-15T17:26:50.668Z,4.60
2018-05-15T17:29:16.973Z,6.13
2018-05-15T17:31:43.249Z,5.17
2018-05-15T17:34:09.542Z,4.80
2018-05-15T17:36:36.569Z,7.30
2018-05-15T17:39:02.935Z,5.13
2018-05-15T17:41:29.228Z,6.50
2018-05-15T17:43:55.534Z,6.07
2018-05-15T17:46:22.833Z,6.13
2018-05-15T17:48:49.124Z,6.17
2018-05-15T17:51:15.484Z,6.50
2018-05-15T17:53:41.725Z,6.43
2018-05-15T17:56:08.067Z,7.27
2018-05-15T17:58:34.366Z,5.70
2018-05-15T18:01:00.685Z,6.70
2018-05-15T18:03:26.981Z,8.13
2018-05-15T18:05:53.257Z,7.20
2018-05-15T18:08:19.552Z,7.90
2018-05-15T18:10:45.842Z,9.53
2018-05-15T18:13:12.137Z,8.47
2018-05-15T18:15:38.421Z,8.57
2018-05-15T18:18:05.457Z,7.97
2018-05-15T18:20:31.744Z,6.30
2018-05-15T18:22:58.020Z,5.17
2018-05-15T18:25:24.348Z,4.93
2018-05-15T18:27:50.628Z,6.17
2018-05-15T18:30:16.912Z,6.20
2018-05-15T18:32:43.214Z,5.60
2018-05-15T18:35:09.518Z,7.90
2018-05-15T18:37:38.833Z,5.60
2018-05-15T18:40:05.175Z,5.43
2018-05-15T18:42:31.468Z,5.20
2018-05-15T18:44:58.743Z,5.60
2018-05-15T18:47:25.931Z,5.00
2018-05-15T18:49:52.948Z,4.90
2018-05-15T18:52:20.973Z,6.17
2018-05-15T18:54:47.296Z,5.80
2018-05-15T18:57:13.660Z,5.72
2018-05-15T18:59:39.953Z,5.30
2018-05-15T19:02:06.264Z,6.60
2018-05-15T19:04:32.634Z,6.50
2018-05-15T19:06:58.913Z,8.13
2018-05-15T19:09:25.249Z,6.47
2018-05-15T19:11:52.336Z,7.70
2018-05-15T19:14:18.628Z,6.87
2018-05-15T19:16:44.933Z,6.30
2018-05-15T19:19:11.235Z,7.65
2018-05-15T19:21:40.545Z,7.30
2018-05-15T19:24:06.840Z,5.93
2018-05-15T19:26:33.153Z,7.85
2018-05-15T19:28:59.433Z,6.60
2018-05-15T19:31:32.665Z,6.20
2018-05-15T19:33:59.744Z,6.95
2018-05-15T19:36:31.099Z,6.07
2018-05-15T19:39:04.192Z,6.40
2018-05-15T19:41:30.509Z,7.10
2018-05-15T19:43:56.785Z,6.65
2018-05-15T19:46:23.254Z,6.50
2018-05-15T19:48:50.853Z,5.60
2018-05-15T19:51:17.162Z,7.62
2018-05-15T19:53:43.509Z,5.72
2018-05-15T19:56:09.781Z,6.75
2018-05-15T19:58:36.073Z,7.68
2018-05-15T20:01:03.125Z,6.25
2018-05-15T20:03:30.142Z,6.70
2018-05-15T20:05:56.433Z,7.78
2018-05-15T20:08:22.728Z,21.95
2018-05-15T20:10:49.033Z,14.23
2018-05-15T20:13:16.373Z,5.70
2018-05-15T20:15:43.412Z,6.10
2018-05-15T20:18:09.697Z,6.70
2018-05-15T20:20:36.010Z,8.45
2018-05-15T20:23:02.304Z,6.78
2018-05-15T20:25:32.401Z,7.07
2018-05-15T20:27:58.693Z,7.25
2018-05-15T20:30:29.877Z,6.97
2018-05-15T20:32:56.157Z,6.87
2018-05-15T20:35:22.467Z,9.63
2018-05-15T20:37:48.745Z,9.13
2018-05-15T20:40:16.064Z,9.48
2018-05-15T20:42:42.356Z,9.68
2018-05-15T20:45:08.669Z,9.43
2018-05-15T20:47:36.715Z,9.23
2018-05-15T20:50:03.061Z,9.25
2018-05-15T20:52:30.381Z,9.40
2018-05-15T20:54:56.685Z,10.40
2018-05-15T20:57:22.985Z,10.20
2018-05-15T20:59:50.017Z,9.85
2018-05-15T21:02:16.326Z,10.57
2018-05-15T21:04:42.604Z,10.68
2018-05-15T21:07:09.645Z,10.60
2018-05-15T21:09:36.670Z,11.45
2018-05-15T21:12:02.976Z,11.50
2018-05-15T21:14:29.291Z,11.45
2018-05-15T21:16:55.577Z,12.82
2018-05-15T21:19:22.677Z,12.00
2018-05-15T21:21:49.868Z,12.52
2018-05-15T21:24:16.812Z,12.25
2018-05-15T21:26:43.879Z,12.73
2018-05-15T21:29:10.905Z,13.02
2018-05-15T21:31:37.212Z,12.50
2018-05-15T21:34:03.544Z,12.57
2018-05-15T21:36:29.845Z,12.40
2018-05-15T21:38:56.145Z,12.73
2018-05-15T21:41:23.349Z,12.60
2018-05-15T21:43:49.678Z,12.37
2018-05-15T21:46:15.962Z,10.90
2018-05-15T21:48:43.040Z,12.55
2018-05-15T21:51:09.349Z,13.05
2018-05-15T21:53:35.648Z,13.40
2018-05-15T21:56:02.989Z,11.70
2018-05-15T21:58:29.294Z,11.88
2018-05-15T22:00:55.589Z,12.98
2018-05-15T22:03:21.893Z,13.68
2018-05-15T22:05:48.187Z,10.93
2018-05-15T22:08:14.497Z,10.85
2018-05-15T22:10:41.837Z,11.68
2018-05-15T22:13:20.484Z,13.82
2018-05-15T22:15:59.318Z,13.57
2018-05-15T22:18:37.937Z,12.68
2018-05-15T22:21:16.555Z,12.70
2018-05-15T22:23:42.689Z,13.48
2018-05-15T22:26:09.000Z,13.43
2018-05-15T22:28:35.281Z,13.32
2018-05-15T22:31:02.350Z,11.95
2018-05-15T22:33:28.653Z,13.48
2018-05-15T22:35:55.703Z,12.77
2018-05-15T22:38:22.013Z,13.15
2018-05-15T22:40:48.317Z,13.95
2018-05-15T22:43:14.653Z,14.20
2018-05-15T22:45:40.953Z,15.85
2018-05-15T22:48:07.249Z,15.60
2018-05-15T22:50:33.541Z,14.45
2018-05-15T22:52:59.829Z,15.82
2018-05-15T22:55:26.152Z,16.17
2018-05-15T22:57:53.181Z,13.80
2018-05-15T23:00:19.512Z,17.05
2018-05-15T23:02:45.817Z,15.02
2018-05-15T23:05:12.105Z,17.77
2018-05-15T23:07:38.408Z,14.65
2018-05-15T23:10:04.690Z,16.48
2018-05-15T23:12:30.979Z,13.68
2018-05-15T23:14:58.020Z,15.07
2018-05-15T23:17:25.121Z,16.10
2018-05-15T23:19:52.094Z,16.50
2018-05-15T23:22:30.728Z,16.65
2018-05-15T23:24:58.035Z,16.37
2018-05-15T23:27:24.319Z,14.60
2018-05-15T23:29:51.387Z,15.55
2018-05-15T23:32:17.681Z,16.05
2018-05-15T23:34:43.962Z,16.35
2018-05-15T23:37:10.260Z,16.85
2018-05-15T23:39:37.293Z,15.90
2018-05-15T23:42:03.605Z,15.82
2018-05-15T23:44:29.911Z,16.48
2018-05-15T23:46:56.205Z,14.80
2018-05-15T23:49:23.239Z,15.52
2018-05-15T23:51:50.293Z,15.50
2018-05-15T23:54:17.321Z,15.40
2018-05-15T23:56:43.597Z,16.35
2018-05-15T23:59:09.901Z,15.55
